createdAt,value
2018-01-21T00:01:02.958Z,2.74
2018-01-21T00:03:31.799Z,2.73
2018-01-21T00:06:00.676Z,2.73
2018-01-21T00:08:29.618Z,2.51
2018-01-21T00:10:58.467Z,2.49
2018-01-21T00:13:27.362Z,2.37
2018-01-21T00:15:57.171Z,2.37
2018-01-21T00:18:26.026Z,2.34
2018-01-21T00:20:54.956Z,2.29
2018-01-21T00:23:25.024Z,2.25
2018-01-21T00:25:53.901Z,2.17
2018-01-21T00:28:22.737Z,2.13
2018-01-21T00:30:52.674Z,2.14
2018-01-21T00:33:21.506Z,2.19
2018-01-21T00:35:50.374Z,2.04
2018-01-21T00:38:19.331Z,2.06
2018-01-21T00:40:48.149Z,2.03
2018-01-21T00:43:17.151Z,1.88
2018-01-21T00:45:46.061Z,1.76
2018-01-21T00:48:14.962Z,1.83
2018-01-21T00:50:43.796Z,1.77
2018-01-21T00:53:14.465Z,1.67
2018-01-21T00:55:43.340Z,1.68
2018-01-21T00:58:12.264Z,1.66
2018-01-21T01:00:41.222Z,1.66
2018-01-21T01:03:10.157Z,1.62
2018-01-21T01:05:39.007Z,1.66
2018-01-21T01:08:10.490Z,1.66
2018-01-21T01:10:39.532Z,1.53
2018-01-21T01:13:08.423Z,1.52
2018-01-21T01:15:37.434Z,1.45
2018-01-21T01:18:06.411Z,1.44
2018-01-21T01:20:35.287Z,1.40
2018-01-21T01:23:09.959Z,1.49
2018-01-21T01:25:38.940Z,1.51
2018-01-21T01:28:07.847Z,1.56
2018-01-21T01:30:36.787Z,1.68
2018-01-21T01:33:05.682Z,1.77
2018-01-21T01:35:34.672Z,1.94
2018-01-21T01:38:03.656Z,1.98
2018-01-21T01:40:32.542Z,2.04
2018-01-21T01:43:01.481Z,2.05
2018-01-21T01:45:30.436Z,2.12
2018-01-21T01:47:59.369Z,2.29
2018-01-21T01:50:28.221Z,2.11
2018-01-21T01:52:57.152Z,1.99
2018-01-21T01:55:26.042Z,2.01
2018-01-21T01:57:55.006Z,1.83
2018-01-21T02:00:23.965Z,1.59
2018-01-21T02:02:52.897Z,1.49
2018-01-21T02:05:21.786Z,1.47
2018-01-21T02:07:52.404Z,1.51
2018-01-21T02:10:21.213Z,1.56
2018-01-21T02:12:50.045Z,1.64
2018-01-21T02:15:22.580Z,1.77
2018-01-21T02:17:51.455Z,1.71
2018-01-21T02:20:20.320Z,1.71
2018-01-21T02:22:50.300Z,1.61
2018-01-21T02:25:19.154Z,1.60
2018-01-21T02:27:47.973Z,1.60
2018-01-21T02:30:16.937Z,1.62
2018-01-21T02:32:45.904Z,1.71
2018-01-21T02:35:14.913Z,1.74
2018-01-21T02:37:43.810Z,1.82
2018-01-21T02:40:12.704Z,1.67
2018-01-21T02:42:41.608Z,1.78
2018-01-21T02:45:10.488Z,1.72
2018-01-21T02:47:39.338Z,1.80
2018-01-21T02:50:08.175Z,1.98
2018-01-21T02:52:37.201Z,2.04
2018-01-21T02:55:06.045Z,2.15
2018-01-21T02:57:35.013Z,2.31
2018-01-21T03:00:03.993Z,2.33
2018-01-21T03:02:33.034Z,2.39
2018-01-21T03:05:02.010Z,2.44
2018-01-21T03:07:30.852Z,2.52
2018-01-21T03:09:59.658Z,2.41
2018-01-21T03:12:28.582Z,2.26
2018-01-21T03:14:58.382Z,2.04
2018-01-21T03:17:27.249Z,1.91
2018-01-21T03:19:56.056Z,1.89
2018-01-21T03:22:25.071Z,1.87
2018-01-21T03:24:53.952Z,1.97
2018-01-21T03:27:22.856Z,1.96
2018-01-21T03:29:52.626Z,1.87
2018-01-21T03:32:21.470Z,1.65
2018-01-21T03:34:50.449Z,1.68
2018-01-21T03:37:19.421Z,1.70
2018-01-21T03:39:48.299Z,1.80
2018-01-21T03:42:17.260Z,1.81
2018-01-21T03:44:46.214Z,1.87
2018-01-21T03:47:15.087Z,1.73
2018-01-21T03:49:43.985Z,1.51
2018-01-21T03:52:12.888Z,1.63
2018-01-21T03:54:41.762Z,1.77
2018-01-21T03:57:10.597Z,1.88
2018-01-21T03:59:42.398Z,1.87
2018-01-21T04:02:11.296Z,1.70
2018-01-21T04:04:40.236Z,1.74
2018-01-21T04:07:09.118Z,1.84
2018-01-21T04:09:38.006Z,1.87
2018-01-21T04:12:06.906Z,1.79
2018-01-21T04:14:36.691Z,1.84
2018-01-21T04:17:05.609Z,1.74
2018-01-21T04:19:34.472Z,1.63
2018-01-21T04:22:05.117Z,1.65
2018-01-21T04:24:34.054Z,1.82
2018-01-21T04:27:02.892Z,1.76
2018-01-21T04:29:31.739Z,1.57
2018-01-21T04:32:00.565Z,1.44
2018-01-21T04:34:29.398Z,1.38
2018-01-21T04:37:00.023Z,1.44
2018-01-21T04:39:28.876Z,1.40
2018-01-21T04:41:57.804Z,1.34
2018-01-21T04:44:26.667Z,1.12
2018-01-21T04:46:55.792Z,0.97
2018-01-21T04:49:24.967Z,0.99
2018-01-21T04:51:55.133Z,1.04
2018-01-21T04:54:24.108Z,0.85
2018-01-21T04:56:53.127Z,0.82
2018-01-21T04:59:23.967Z,0.77
2018-01-21T05:01:54.600Z,0.76
2018-01-21T05:04:26.493Z,0.69
2018-01-21T05:06:55.635Z,0.75
2018-01-21T05:09:24.625Z,0.80
2018-01-21T05:11:53.725Z,0.84
2018-01-21T05:14:22.722Z,0.82
2018-01-21T05:16:51.982Z,0.75
2018-01-21T05:19:21.300Z,0.83
2018-01-21T05:21:52.423Z,0.90
2018-01-21T05:24:21.355Z,0.95
2018-01-21T05:26:51.279Z,0.95
2018-01-21T05:29:21.294Z,1.05
2018-01-21T05:31:50.280Z,1.13
2018-01-21T05:34:20.218Z,1.18
2018-01-21T05:36:50.052Z,1.19
2018-01-21T05:39:20.012Z,1.21
2018-01-21T05:41:49.895Z,1.27
2018-01-21T05:44:19.062Z,1.38
2018-01-21T05:46:48.107Z,1.34
2018-01-21T05:49:17.230Z,1.36
2018-01-21T05:51:46.323Z,1.49
2018-01-21T05:54:15.522Z,1.63
2018-01-21T05:56:46.528Z,1.62
2018-01-21T05:59:17.227Z,1.48
2018-01-21T06:01:46.462Z,1.56
2018-01-21T06:04:17.857Z,1.44
2018-01-21T06:06:47.062Z,1.40
2018-01-21T06:09:15.921Z,1.53
2018-01-21T06:11:45.871Z,1.60
2018-01-21T06:14:14.877Z,1.57
2018-01-21T06:16:50.619Z,1.52
2018-01-21T06:19:19.876Z,1.64
2018-01-21T06:21:49.020Z,1.73
2018-01-21T06:24:19.000Z,1.96
2018-01-21T06:26:49.143Z,1.98
2018-01-21T06:29:18.990Z,1.98
2018-01-21T06:31:55.145Z,2.06
2018-01-21T06:34:24.273Z,2.12
2018-01-21T06:36:54.019Z,2.06
2018-01-21T06:39:22.934Z,2.09
2018-01-21T06:41:53.026Z,2.31
2018-01-21T06:44:22.987Z,2.18
2018-01-21T06:46:53.498Z,2.22
2018-01-21T06:49:22.939Z,2.43
2018-01-21T06:51:51.896Z,2.56
2018-01-21T06:54:22.082Z,2.73
2018-01-21T06:56:51.146Z,2.74
2018-01-21T06:59:21.194Z,2.56
2018-01-21T07:01:53.004Z,2.63
2018-01-21T07:04:22.965Z,2.66
2018-01-21T07:06:53.670Z,2.66
2018-01-21T07:09:23.276Z,2.66
2018-01-21T07:11:54.380Z,2.65
2018-01-21T07:14:24.404Z,2.73
2018-01-21T07:16:53.585Z,2.50
2018-01-21T07:19:24.178Z,2.66
2018-01-21T07:21:53.779Z,2.89
2018-01-21T07:24:24.420Z,3.09
2018-01-21T07:26:55.861Z,3.17
2018-01-21T07:29:27.005Z,3.24
2018-01-21T07:31:57.065Z,3.09
2018-01-21T07:34:27.817Z,2.93
2018-01-21T07:36:56.835Z,2.93
2018-01-21T07:39:35.369Z,2.70
2018-01-21T07:42:05.293Z,2.75
2018-01-21T07:44:34.471Z,2.70
2018-01-21T07:47:05.320Z,2.79
2018-01-21T07:49:35.163Z,2.78
2018-01-21T07:52:04.118Z,2.84
2018-01-21T07:54:33.247Z,2.79
2018-01-21T07:57:03.643Z,2.70
2018-01-21T07:59:33.044Z,2.95
2018-01-21T08:02:03.524Z,3.12
2018-01-21T08:04:32.512Z,3.03
2018-01-21T08:07:01.604Z,3.05
2018-01-21T08:09:31.540Z,3.23
2018-01-21T08:12:00.707Z,3.25
2018-01-21T08:14:30.021Z,3.27
2018-01-21T08:17:00.041Z,3.19
2018-01-21T08:19:29.127Z,3.02
2018-01-21T08:21:58.239Z,3.08
2018-01-21T08:24:28.456Z,3.21
2018-01-21T08:26:58.911Z,3.42
2018-01-21T08:29:27.788Z,3.48
2018-01-21T08:31:59.386Z,3.57
2018-01-21T08:34:33.901Z,3.71
2018-01-21T08:37:08.844Z,3.68
2018-01-21T08:39:43.362Z,3.74
2018-01-21T08:42:14.871Z,3.23
2018-01-21T08:44:43.799Z,3.22
2018-01-21T08:47:13.701Z,3.10
2018-01-21T08:49:43.805Z,3.03
2018-01-21T08:52:13.770Z,3.10
2018-01-21T08:54:43.589Z,3.26
2018-01-21T08:57:17.176Z,3.25
2018-01-21T08:59:46.676Z,3.12
2018-01-21T09:02:15.720Z,3.11
2018-01-21T09:04:47.591Z,3.31
2018-01-21T09:07:17.448Z,3.52
2018-01-21T09:09:48.137Z,3.75
2018-01-21T09:12:20.762Z,3.79
2018-01-21T09:14:52.153Z,3.61
2018-01-21T09:17:22.192Z,3.76
2018-01-21T09:19:51.616Z,3.79
2018-01-21T09:22:20.822Z,3.62
2018-01-21T09:24:49.998Z,3.70
2018-01-21T09:27:19.164Z,3.61
2018-01-21T09:29:49.412Z,3.54
2018-01-21T09:32:22.039Z,3.62
2018-01-21T09:34:51.587Z,3.71
2018-01-21T09:37:20.645Z,3.61
2018-01-21T09:39:50.263Z,3.68
2018-01-21T09:42:20.662Z,3.63
2018-01-21T09:44:50.120Z,3.60
2018-01-21T09:47:22.680Z,3.79
2018-01-21T09:49:52.223Z,3.89
2018-01-21T09:52:22.101Z,4.03
2018-01-21T09:54:52.233Z,3.93
2018-01-21T09:57:22.566Z,3.96
2018-01-21T09:59:52.472Z,4.09
2018-01-21T10:02:25.847Z,4.01
2018-01-21T10:04:56.266Z,4.10
2018-01-21T10:07:25.789Z,4.07
2018-01-21T10:09:59.224Z,4.09
2018-01-21T10:12:30.115Z,4.16
2018-01-21T10:14:59.548Z,4.31
2018-01-21T10:17:29.447Z,4.26
2018-01-21T10:19:58.375Z,4.30
2018-01-21T10:22:27.582Z,4.34
2018-01-21T10:24:59.481Z,4.40
2018-01-21T10:27:28.477Z,4.38
2018-01-21T10:29:58.586Z,4.41
2018-01-21T10:32:29.225Z,4.50
2018-01-21T10:34:59.965Z,4.42
2018-01-21T10:37:29.071Z,4.28
2018-01-21T10:40:00.608Z,4.40
2018-01-21T10:42:29.636Z,4.31
2018-01-21T10:44:58.835Z,4.22
2018-01-21T10:47:29.166Z,4.25
2018-01-21T10:49:58.483Z,4.40
2018-01-21T10:52:27.701Z,4.48
2018-01-21T10:54:57.189Z,4.55
2018-01-21T10:57:26.230Z,4.71
2018-01-21T10:59:55.462Z,4.83
2018-01-21T11:02:25.927Z,4.88
2018-01-21T11:04:55.103Z,4.99
2018-01-21T11:07:24.973Z,4.88
2018-01-21T11:09:54.937Z,4.86
2018-01-21T11:12:24.285Z,4.89
2018-01-21T11:14:53.538Z,4.83
2018-01-21T11:17:25.423Z,4.89
2018-01-21T11:19:55.666Z,4.93
2018-01-21T11:22:24.863Z,5.00
2018-01-21T11:24:55.153Z,5.10
2018-01-21T11:27:24.222Z,5.03
2018-01-21T11:29:53.350Z,5.09
2018-01-21T11:32:22.484Z,5.23
2018-01-21T11:34:51.713Z,5.25
2018-01-21T11:37:20.948Z,4.98
2018-01-21T11:39:50.741Z,4.91
2018-01-21T11:42:20.290Z,5.03
2018-01-21T11:44:50.292Z,5.12
2018-01-21T11:47:20.108Z,5.16
2018-01-21T11:49:50.074Z,5.01
2018-01-21T11:52:19.157Z,4.98
2018-01-21T11:54:49.097Z,5.02
2018-01-21T11:57:17.959Z,5.11
2018-01-21T11:59:47.841Z,5.06
2018-01-21T12:02:19.744Z,5.05
2018-01-21T12:04:48.782Z,5.07
2018-01-21T12:07:18.036Z,5.12
2018-01-21T12:09:48.445Z,5.26
2018-01-21T12:12:17.769Z,5.28
2018-01-21T12:14:46.800Z,5.34
2018-01-21T12:17:16.926Z,5.34
2018-01-21T12:19:46.333Z,5.38
2018-01-21T12:22:16.537Z,5.46
2018-01-21T12:24:46.319Z,5.38
2018-01-21T12:27:17.313Z,5.33
2018-01-21T12:29:46.207Z,5.29
2018-01-21T12:32:15.839Z,5.33
2018-01-21T12:34:44.856Z,5.37
2018-01-21T12:37:15.971Z,5.41
2018-01-21T12:39:45.990Z,5.46
2018-01-21T12:42:16.555Z,5.54
2018-01-21T12:44:45.592Z,5.51
2018-01-21T12:47:14.739Z,5.48
2018-01-21T12:49:43.968Z,5.27
2018-01-21T12:52:12.855Z,5.49
2018-01-21T12:54:43.722Z,5.38
2018-01-21T12:57:14.667Z,5.38
2018-01-21T12:59:43.648Z,5.41
2018-01-21T13:02:13.161Z,5.39
2018-01-21T13:04:42.124Z,5.54
2018-01-21T13:07:11.482Z,5.54
2018-01-21T13:09:41.328Z,5.50
2018-01-21T13:12:10.551Z,5.44
2018-01-21T13:14:39.779Z,5.52
2018-01-21T13:17:09.016Z,5.59
2018-01-21T13:19:38.145Z,5.64
2018-01-21T13:22:07.311Z,5.67
2018-01-21T13:24:38.559Z,5.63
2018-01-21T13:27:07.492Z,5.61
2018-01-21T13:29:36.541Z,5.67
2018-01-21T13:32:06.504Z,5.67
2018-01-21T13:34:35.537Z,5.64
2018-01-21T13:37:04.918Z,5.71
2018-01-21T13:39:34.899Z,5.76
2018-01-21T13:42:04.209Z,5.78
2018-01-21T13:44:33.178Z,5.73
2018-01-21T13:47:04.920Z,5.78
2018-01-21T13:49:33.939Z,5.72
2018-01-21T13:52:03.888Z,5.83
2018-01-21T13:54:34.012Z,5.90
2018-01-21T13:57:03.394Z,5.87
2018-01-21T13:59:32.545Z,5.88
2018-01-21T14:02:04.006Z,5.79
2018-01-21T14:04:34.679Z,5.73
2018-01-21T14:07:04.656Z,5.79
2018-01-21T14:09:33.691Z,5.84
2018-01-21T14:12:02.869Z,5.80
2018-01-21T14:14:31.982Z,5.78
2018-01-21T14:17:00.971Z,5.84
2018-01-21T14:19:29.984Z,5.85
2018-01-21T14:21:59.086Z,5.87
2018-01-21T14:24:28.493Z,5.83
2018-01-21T14:26:57.358Z,5.82
2018-01-21T14:29:26.394Z,5.83
2018-01-21T14:31:55.577Z,5.89
2018-01-21T14:34:27.003Z,5.89
2018-01-21T14:36:56.067Z,5.82
2018-01-21T14:39:25.370Z,5.82
2018-01-21T14:41:54.668Z,5.87
2018-01-21T14:44:24.671Z,5.94
2018-01-21T14:46:54.511Z,5.90
2018-01-21T14:49:23.625Z,5.88
2018-01-21T14:51:52.897Z,5.88
2018-01-21T14:54:23.068Z,5.90
2018-01-21T14:56:52.240Z,5.90
2018-01-21T14:59:21.426Z,5.94
2018-01-21T15:01:50.779Z,5.95
2018-01-21T15:04:19.921Z,6.02
2018-01-21T15:06:53.212Z,5.96
2018-01-21T15:09:23.114Z,5.91
2018-01-21T15:11:53.096Z,5.86
2018-01-21T15:14:23.911Z,5.84
2018-01-21T15:16:53.243Z,5.92
2018-01-21T15:19:23.288Z,5.96
2018-01-21T15:21:53.273Z,5.87
2018-01-21T15:24:22.291Z,5.94
2018-01-21T15:26:52.343Z,5.87
2018-01-21T15:29:24.865Z,5.87
2018-01-21T15:31:54.690Z,5.87
2018-01-21T15:34:26.291Z,5.87
2018-01-21T15:36:58.400Z,5.98
2018-01-21T15:39:28.005Z,5.98
2018-01-21T15:41:57.293Z,5.98
2018-01-21T15:44:26.379Z,5.97
2018-01-21T15:46:56.768Z,5.98
2018-01-21T15:49:27.689Z,5.98
2018-01-21T15:51:56.911Z,5.99
2018-01-21T15:54:26.228Z,6.00
2018-01-21T15:56:56.396Z,5.98
2018-01-21T15:59:26.769Z,5.94
2018-01-21T16:01:57.645Z,5.93
2018-01-21T16:04:27.145Z,5.97
2018-01-21T16:06:57.178Z,5.97
2018-01-21T16:09:26.845Z,5.96
2018-01-21T16:11:56.039Z,6.00
2018-01-21T16:14:25.626Z,5.98
2018-01-21T16:16:58.789Z,5.98
2018-01-21T16:19:28.921Z,6.12
2018-01-21T16:21:58.161Z,6.06
2018-01-21T16:24:28.105Z,6.07
2018-01-21T16:26:57.681Z,6.03
2018-01-21T16:29:27.504Z,5.99
2018-01-21T16:32:00.037Z,5.95
2018-01-21T16:34:30.958Z,5.98
2018-01-21T16:37:01.332Z,5.92
2018-01-21T16:39:30.592Z,5.88
2018-01-21T16:42:00.504Z,5.83
2018-01-21T16:44:30.340Z,5.79
2018-01-21T16:47:00.436Z,5.75
2018-01-21T16:49:33.907Z,5.81
2018-01-21T16:52:02.846Z,5.79
2018-01-21T16:54:31.834Z,5.71
2018-01-21T16:57:02.616Z,5.70
2018-01-21T16:59:32.078Z,5.72
2018-01-21T17:02:01.455Z,5.68
2018-01-21T17:04:30.892Z,5.63
2018-01-21T17:06:59.774Z,5.58
2018-01-21T17:09:28.803Z,5.66
2018-01-21T17:11:59.766Z,5.65
2018-01-21T17:14:29.255Z,5.70
2018-01-21T17:16:58.756Z,5.69
2018-01-21T17:19:33.161Z,5.59
2018-01-21T17:22:02.399Z,5.62
2018-01-21T17:24:31.980Z,5.63
2018-01-21T17:27:07.997Z,5.69
2018-01-21T17:29:37.549Z,5.75
2018-01-21T17:32:06.941Z,5.74
2018-01-21T17:34:37.449Z,5.68
2018-01-21T17:37:06.569Z,5.77
2018-01-21T17:39:37.585Z,5.78
2018-01-21T17:42:09.946Z,5.85
2018-01-21T17:44:39.299Z,5.79
2018-01-21T17:47:08.392Z,5.79
2018-01-21T17:49:40.114Z,5.77
2018-01-21T17:52:10.406Z,5.85
2018-01-21T17:54:40.142Z,5.82
2018-01-21T17:57:10.956Z,5.81
2018-01-21T17:59:41.440Z,5.87
2018-01-21T18:02:10.656Z,5.86
2018-01-21T18:04:40.690Z,5.86
2018-01-21T18:07:10.206Z,5.91
2018-01-21T18:09:39.812Z,5.89
2018-01-21T18:12:09.905Z,5.92
2018-01-21T18:14:40.065Z,6.00
2018-01-21T18:17:12.480Z,5.94
2018-01-21T18:19:42.212Z,5.91
2018-01-21T18:22:11.868Z,5.86
2018-01-21T18:24:41.544Z,5.92
2018-01-21T18:27:14.811Z,5.88
2018-01-21T18:29:46.446Z,5.91
2018-01-21T18:32:16.338Z,5.85
2018-01-21T18:34:45.759Z,5.91
2018-01-21T18:37:17.286Z,5.99
2018-01-21T18:39:47.455Z,5.99
2018-01-21T18:42:16.795Z,5.92
2018-01-21T18:44:46.258Z,5.97
2018-01-21T18:47:15.742Z,5.99
2018-01-21T18:49:45.336Z,5.99
2018-01-21T18:52:15.213Z,5.99
2018-01-21T18:54:44.571Z,6.03
2018-01-21T18:57:13.999Z,5.98
2018-01-21T18:59:46.341Z,5.98
2018-01-21T19:02:15.806Z,5.94
2018-01-21T19:04:45.226Z,5.96
2018-01-21T19:07:15.474Z,5.92
2018-01-21T19:09:45.148Z,6.01
2018-01-21T19:12:17.570Z,5.96
2018-01-21T19:14:47.247Z,5.98
2018-01-21T19:17:17.191Z,5.97
2018-01-21T19:19:47.320Z,5.94
2018-01-21T19:22:17.646Z,5.99
2018-01-21T19:24:47.726Z,6.04
2018-01-21T19:27:17.148Z,6.10
2018-01-21T19:29:47.957Z,6.04
2018-01-21T19:32:19.133Z,6.08
2018-01-21T19:34:48.166Z,6.06
2018-01-21T19:37:17.277Z,6.09
2018-01-21T19:40:03.186Z,6.09
2018-01-21T19:42:49.055Z,6.14
2018-01-21T19:45:18.661Z,6.12
2018-01-21T19:47:48.082Z,6.16
2018-01-21T19:50:17.687Z,6.14
2018-01-21T19:52:48.111Z,6.15
2018-01-21T19:55:17.418Z,6.14
2018-01-21T19:57:46.628Z,6.19
2018-01-21T20:00:17.220Z,6.27
2018-01-21T20:02:48.047Z,6.26
2018-01-21T20:05:17.936Z,6.27
2018-01-21T20:07:47.588Z,6.32
2018-01-21T20:10:17.146Z,6.32
2018-01-21T20:12:55.371Z,6.32
2018-01-21T20:15:25.118Z,6.34
2018-01-21T20:17:54.599Z,6.34
2018-01-21T20:20:24.087Z,6.36
2018-01-21T20:22:53.253Z,6.42
2018-01-21T20:25:22.473Z,6.43
2018-01-21T20:27:59.080Z,6.50
2018-01-21T20:30:28.417Z,6.54
2018-01-21T20:32:57.830Z,6.56
2018-01-21T20:35:28.196Z,6.58
2018-01-21T20:37:58.518Z,6.63
2018-01-21T20:40:27.593Z,6.66
2018-01-21T20:42:57.496Z,6.59
2018-01-21T20:45:28.115Z,6.62
2018-01-21T20:47:58.128Z,6.63
2018-01-21T20:50:28.297Z,6.62
2018-01-21T20:52:58.223Z,6.67
2018-01-21T20:55:27.319Z,6.63
2018-01-21T20:57:56.822Z,6.60
2018-01-21T21:00:26.388Z,6.59
2018-01-21T21:02:56.444Z,6.68
2018-01-21T21:05:27.790Z,6.70
2018-01-21T21:07:56.950Z,6.70
2018-01-21T21:10:27.125Z,6.72
2018-01-21T21:12:56.735Z,6.74
2018-01-21T21:15:27.254Z,6.79
2018-01-21T21:17:56.701Z,6.77
2018-01-21T21:20:26.622Z,6.79
2018-01-21T21:22:56.939Z,6.83
2018-01-21T21:25:26.328Z,6.84
2018-01-21T21:27:56.049Z,6.92
2018-01-21T21:30:26.457Z,6.87
2018-01-21T21:32:57.286Z,6.86
2018-01-21T21:35:30.262Z,6.82
2018-01-21T21:38:00.228Z,6.93
2018-01-21T21:40:30.378Z,6.95
2018-01-21T21:42:59.848Z,6.98
2018-01-21T21:45:30.186Z,6.93
2018-01-21T21:47:59.512Z,7.09
2018-01-21T21:50:29.106Z,7.10
2018-01-21T21:52:58.141Z,7.01
2018-01-21T21:55:27.328Z,7.06
2018-01-21T21:57:57.848Z,7.10
2018-01-21T22:00:27.373Z,7.10
2018-01-21T22:02:56.566Z,7.03
2018-01-21T22:05:25.771Z,7.20
2018-01-21T22:07:55.949Z,7.19
2018-01-21T22:10:25.042Z,7.21
2018-01-21T22:12:54.181Z,7.23
2018-01-21T22:15:25.754Z,7.25
2018-01-21T22:17:55.296Z,7.29
2018-01-21T22:20:24.930Z,7.29
2018-01-21T22:22:54.362Z,7.40
2018-01-21T22:25:24.014Z,7.48
2018-01-21T22:27:53.427Z,7.50
2018-01-21T22:30:23.007Z,7.55
2018-01-21T22:32:52.640Z,7.55
2018-01-21T22:35:22.079Z,7.61
2018-01-21T22:37:51.780Z,7.63
2018-01-21T22:40:22.059Z,7.67
2018-01-21T22:42:51.796Z,7.69
2018-01-21T22:45:22.949Z,7.70
2018-01-21T22:47:52.610Z,7.68
2018-01-21T22:50:22.433Z,7.67
2018-01-21T22:52:51.560Z,7.71
2018-01-21T22:55:21.926Z,7.72
2018-01-21T22:57:52.210Z,7.64
2018-01-21T23:00:22.305Z,7.67
2018-01-21T23:02:51.648Z,7.64
2018-01-21T23:05:21.316Z,7.63
2018-01-21T23:07:51.343Z,7.69
2018-01-21T23:10:20.577Z,7.70
2018-01-21T23:12:49.734Z,7.73
2018-01-21T23:15:19.316Z,7.79
2018-01-21T23:17:50.225Z,7.68
2018-01-21T23:20:31.282Z,7.72
2018-01-21T23:23:00.204Z,7.76
2018-01-21T23:25:29.161Z,7.79
2018-01-21T23:27:58.806Z,7.80
2018-01-21T23:30:27.764Z,7.86
2018-01-21T23:32:56.891Z,7.94
2018-01-21T23:35:26.259Z,7.90
2018-01-21T23:37:55.473Z,7.84
2018-01-21T23:40:25.474Z,7.76
2018-01-21T23:42:58.026Z,7.75
2018-01-21T23:45:27.353Z,7.77
2018-01-21T23:47:56.351Z,7.74
2018-01-21T23:50:27.637Z,7.76
2018-01-21T23:52:58.678Z,7.77
2018-01-21T23:55:28.058Z,7.70
2018-01-21T23:57:58.264Z,7.65
